Time;durP1;ratioP1;P1;durP2;ratioP2;P2;SDS_P1;SDS_P2;PMS_P1;PMS_P2;Temp;Humidity;BMP_temperature;BMP_pressure;BME280_temperature;BME280_humidity;BME280_pressure;Samples;Min_cycle;Max_cycle;Signal;HPM_P1;HPM_P2
2022/07/10 00:01:27;;;;;;;3.00;2.45;;;24.00;87.10;;;;;;5095101;28;20045;-71
2022/07/10 00:03:54;;;;;;;4.78;2.40;;;23.90;87.70;;;;;;5095733;28;20024;-71
2022/07/10 00:06:20;;;;;;;4.88;3.05;;;23.80;87.70;;;;;;5096313;28;20028;-71
2022/07/10 00:08:47;;;;;;;3.17;2.22;;;23.70;88.30;;;;;;5090333;28;20400;-71
2022/07/10 00:11:13;;;;;;;3.78;2.20;;;23.70;88.50;;;;;;5088275;28;20542;-71
2022/07/10 00:13:39;;;;;;;3.90;2.63;;;23.60;89.20;;;;;;5094290;28;20020;-71
2022/07/10 00:16:05;;;;;;;5.03;2.85;;;23.50;90.00;;;;;;5094689;28;20017;-71
2022/07/10 00:18:31;;;;;;;5.78;2.10;;;23.40;90.10;;;;;;5095860;28;20051;-71
2022/07/10 00:20:57;;;;;;;6.90;2.70;;;23.20;90.60;;;;;;5094795;28;20017;-71
2022/07/10 00:23:22;;;;;;;4.10;2.30;;;23.20;91.10;;;;;;5096482;28;20024;-71
2022/07/10 00:25:48;;;;;;;5.68;2.70;;;23.00;91.50;;;;;;5094836;28;20032;-71
2022/07/10 00:28:14;;;;;;;6.43;2.40;;;22.90;91.70;;;;;;5078042;28;20621;-71
2022/07/10 00:30:40;;;;;;;5.05;2.25;;;22.80;92.10;;;;;;5080441;28;20020;-73
2022/07/10 00:33:05;;;;;;;5.75;3.03;;;22.70;92.10;;;;;;5092492;28;20017;-73
2022/07/10 00:35:31;;;;;;;8.93;2.60;;;22.60;92.60;;;;;;5083027;28;20020;-73
2022/07/10 00:37:57;;;;;;;4.13;2.40;;;22.50;93.10;;;;;;5084962;28;20389;-73
2022/07/10 00:40:23;;;;;;;5.75;3.28;;;22.40;93.10;;;;;;5085474;28;20028;-73
2022/07/10 00:42:49;;;;;;;3.60;2.65;;;22.30;92.70;;;;;;5096183;28;20484;-73
2022/07/10 00:45:15;;;;;;;5.80;2.72;;;22.30;93.40;;;;;;5093371;28;20031;-73
2022/07/10 00:47:41;;;;;;;5.25;2.92;;;22.20;93.40;;;;;;5090446;28;20543;-73
2022/07/10 00:50:07;;;;;;;5.57;2.92;;;22.20;93.70;;;;;;5086887;28;20099;-72
2022/07/10 00:52:38;;;;;;;3.83;2.60;;;22.10;93.70;;;;;;5094531;28;20051;-72
2022/07/10 00:55:08;;;;;;;7.75;3.10;;;22.00;93.90;;;;;;5092771;28;20480;-73
2022/07/10 00:57:36;;;;;;;4.40;2.85;;;21.90;94.00;;;;;;5095579;28;20491;-73
2022/07/10 01:00:03;;;;;;;4.95;2.65;;;21.80;94.10;;;;;;5091849;28;20028;-73
2022/07/10 01:02:29;;;;;;;8.02;2.60;;;21.70;94.30;;;;;;5077328;28;20031;-73
2022/07/10 01:04:57;;;;;;;5.03;2.88;;;21.60;94.50;;;;;;5080174;28;20016;-73
2022/07/10 01:07:23;;;;;;;8.73;3.03;;;21.60;94.90;;;;;;5081085;28;20051;-73
2022/07/10 01:09:49;;;;;;;3.70;2.85;;;21.60;95.00;;;;;;5085694;28;20047;-73
2022/07/10 01:12:16;;;;;;;7.70;2.72;;;21.50;95.10;;;;;;5081647;28;20035;-72
2022/07/10 01:14:43;;;;;;;6.55;2.88;;;21.50;95.20;;;;;;5087363;28;20024;-72
2022/07/10 01:17:11;;;;;;;6.07;2.83;;;21.40;95.60;;;;;;5092248;28;20048;-73
2022/07/10 01:19:36;;;;;;;4.53;2.70;;;21.40;95.80;;;;;;5091573;28;20020;-73
2022/07/10 01:22:03;;;;;;;6.97;3.13;;;21.30;95.80;;;;;;5088992;28;20065;-73
2022/07/10 01:24:28;;;;;;;3.67;2.65;;;21.30;96.10;;;;;;5110151;28;20033;-73
2022/07/10 01:26:54;;;;;;;3.80;2.90;;;21.20;96.20;;;;;;5087372;28;20031;-73
2022/07/10 01:29:22;;;;;;;4.57;2.88;;;21.20;96.60;;;;;;5093354;28;20392;-73
2022/07/10 01:31:48;;;;;;;7.25;3.25;;;21.10;96.70;;;;;;5095231;28;20024;-72
2022/07/10 01:34:14;;;;;;;6.18;2.65;;;21.10;97.10;;;;;;5096978;28;20029;-73
2022/07/10 01:36:40;;;;;;;9.52;3.22;;;21.00;97.10;;;;;;5084935;28;20515;-73
2022/07/10 01:39:06;;;;;;;5.30;2.80;;;21.00;97.30;;;;;;5078422;28;20465;-73
2022/07/10 01:41:32;;;;;;;5.25;3.35;;;21.00;97.50;;;;;;5077908;28;20830;-73
2022/07/10 01:43:58;;;;;;;5.63;2.90;;;20.90;97.50;;;;;;5083016;28;20458;-73
2022/07/10 01:46:25;;;;;;;7.72;3.03;;;20.80;97.70;;;;;;5079714;28;20400;-73
2022/07/10 01:48:51;;;;;;;5.00;2.90;;;20.80;97.90;;;;;;5087296;28;20023;-73
2022/07/10 01:51:17;;;;;;;5.05;2.88;;;20.70;97.90;;;;;;5091382;28;20044;-73
2022/07/10 01:53:43;;;;;;;5.18;3.08;;;20.70;98.10;;;;;;5089951;28;20042;-73
2022/07/10 01:56:11;;;;;;;4.30;2.90;;;20.60;98.40;;;;;;5088271;28;20123;-73
2022/07/10 01:58:37;;;;;;;5.05;2.75;;;20.60;98.80;;;;;;5092757;28;20050;-73
2022/07/10 02:01:04;;;;;;;5.95;2.67;;;20.50;99.00;;;;;;5091695;28;20394;-73
2022/07/10 02:06:15;;;;;;;4.53;2.83;;;20.40;99.30;;;;;;5095896;28;20400;-70
2022/07/10 02:08:41;;;;;;;3.85;2.75;;;20.30;99.50;;;;;;5088181;28;20630;-70
2022/07/10 02:11:07;;;;;;;4.25;2.95;;;20.20;99.90;;;;;;5085140;28;20017;-73
2022/07/10 02:13:33;;;;;;;6.28;2.92;;;20.20;99.90;;;;;;5096716;28;20016;-73
2022/07/10 02:15:59;;;;;;;3.72;2.75;;;20.20;99.90;;;;;;5098086;28;20031;-72
2022/07/10 02:18:25;;;;;;;3.45;2.65;;;20.10;99.90;;;;;;5100103;28;20499;-73
2022/07/10 02:20:52;;;;;;;8.60;3.72;;;20.10;99.90;;;;;;5099569;28;20057;-70
2022/07/10 02:23:18;;;;;;;6.22;2.97;;;20.00;99.90;;;;;;5103480;28;20028;-70
2022/07/10 02:25:44;;;;;;;6.75;3.40;;;20.00;99.90;;;;;;5087663;28;20035;-70
2022/07/10 02:28:10;;;;;;;7.72;2.78;;;19.90;99.90;;;;;;5083488;28;20505;-70
2022/07/10 02:30:36;;;;;;;5.22;2.88;;;19.90;99.90;;;;;;5086327;28;20029;-70
2022/07/10 02:33:02;;;;;;;3.45;2.80;;;19.80;99.90;;;;;;5098531;28;20070;-70
2022/07/10 02:35:28;;;;;;;4.63;2.70;;;19.80;99.90;;;;;;5087868;28;20029;-70
2022/07/10 02:37:54;;;;;;;5.75;3.67;;;19.70;99.90;;;;;;5090763;28;20028;-70
2022/07/10 02:40:20;;;;;;;6.07;3.17;;;19.70;99.90;;;;;;5090283;28;20561;-70
2022/07/10 02:42:46;;;;;;;6.28;3.28;;;19.60;99.90;;;;;;5096438;28;20028;-70
2022/07/10 02:45:12;;;;;;;7.45;3.20;;;19.60;99.90;;;;;;5091560;28;20031;-70
2022/07/10 02:47:37;;;;;;;5.63;3.20;;;19.60;99.90;;;;;;5097330;28;20027;-70
2022/07/10 02:50:04;;;;;;;5.43;3.53;;;19.50;99.90;;;;;;5103677;28;20028;-70
2022/07/10 02:52:30;;;;;;;10.82;3.03;;;19.60;99.90;;;;;;5098653;28;20050;-70
2022/07/10 02:54:57;;;;;;;4.97;2.92;;;19.60;99.90;;;;;;5092410;28;20116;-70
2022/07/10 02:57:23;;;;;;;4.10;3.00;;;19.60;99.90;;;;;;5097221;28;20431;-70
2022/07/10 02:59:49;;;;;;;6.38;3.70;;;19.60;99.90;;;;;;5088534;28;20021;-70
2022/07/10 03:02:15;;;;;;;4.15;3.30;;;19.60;99.90;;;;;;5088489;28;20043;-70
2022/07/10 03:04:42;;;;;;;6.07;3.42;;;19.60;99.90;;;;;;5097447;28;20055;-70
2022/07/10 03:07:08;;;;;;;7.78;3.20;;;19.60;99.90;;;;;;5091892;28;20028;-70
2022/07/10 03:09:34;;;;;;;5.50;3.40;;;19.60;99.90;;;;;;5091984;28;20499;-70
2022/07/10 03:12:00;;;;;;;9.45;3.42;;;19.50;99.90;;;;;;5096580;28;20087;-70
2022/07/10 03:14:26;;;;;;;6.38;3.20;;;19.50;99.90;;;;;;5094737;28;20544;-70
2022/07/10 03:16:52;;;;;;;14.93;3.22;;;19.50;99.90;;;;;;5099680;28;20073;-70
2022/07/10 03:19:18;;;;;;;5.40;3.30;;;19.50;99.90;;;;;;5097800;28;20024;-70
2022/07/10 03:21:45;;;;;;;5.10;3.17;;;19.40;99.90;;;;;;5101260;28;20153;-70
2022/07/10 03:24:11;;;;;;;4.97;3.10;;;19.50;99.90;;;;;;5084732;28;20029;-70
2022/07/10 03:26:37;;;;;;;6.93;3.35;;;19.40;99.90;;;;;;5095427;28;20053;-70
2022/07/10 03:29:03;;;;;;;9.50;3.30;;;19.30;99.90;;;;;;5094652;28;20096;-70
2022/07/10 03:31:29;;;;;;;4.35;2.67;;;19.30;99.90;;;;;;5098021;28;20109;-70
2022/07/10 03:33:54;;;;;;;9.00;3.88;;;19.30;99.90;;;;;;5091019;28;20373;-70
2022/07/10 03:36:20;;;;;;;5.75;3.38;;;19.20;99.90;;;;;;5093597;28;20024;-70
2022/07/10 03:38:46;;;;;;;4.28;3.08;;;19.20;99.90;;;;;;5088969;28;20032;-70
2022/07/10 03:41:13;;;;;;;5.13;3.40;;;19.10;99.90;;;;;;5095777;28;20024;-70
2022/07/10 03:43:39;;;;;;;5.63;3.03;;;19.20;99.90;;;;;;5095391;28;20047;-70
2022/07/10 03:46:05;;;;;;;5.30;3.20;;;19.20;99.90;;;;;;5097585;28;20099;-70
2022/07/10 03:48:32;;;;;;;4.03;3.05;;;19.20;99.90;;;;;;5098009;28;20016;-70
2022/07/10 03:50:58;;;;;;;5.68;3.42;;;19.10;99.90;;;;;;5090868;28;20032;-71
2022/07/10 03:53:24;;;;;;;7.95;3.15;;;19.10;99.90;;;;;;5081837;28;20040;-70
2022/07/10 03:55:50;;;;;;;5.93;3.80;;;19.10;99.90;;;;;;5081656;28;20394;-70
2022/07/10 03:58:16;;;;;;;7.68;3.33;;;19.10;99.90;;;;;;5083239;28;20035;-70
2022/07/10 04:00:43;;;;;;;4.25;3.10;;;19.10;99.90;;;;;;5092702;28;20021;-70
2022/07/10 04:03:09;;;;;;;9.82;3.60;;;19.00;99.90;;;;;;5086701;28;20489;-70
2022/07/10 04:05:35;;;;;;;6.65;3.67;;;19.00;99.90;;;;;;5088066;28;20028;-70
2022/07/10 04:08:03;;;;;;;8.07;3.97;;;19.00;99.90;;;;;;5087962;28;20107;-70
2022/07/10 04:10:33;;;;;;;8.25;4.05;;;18.90;99.90;;;;;;5092547;28;20027;-70
2022/07/10 04:13:00;;;;;;;5.38;3.53;;;18.80;99.90;;;;;;5089589;28;20016;-70
2022/07/10 04:15:26;;;;;;;5.22;3.55;;;18.70;99.90;;;;;;5094840;28;20039;-70
2022/07/10 04:17:52;;;;;;;6.50;3.15;;;18.70;99.90;;;;;;5096846;28;20024;-70
2022/07/10 04:20:19;;;;;;;7.10;4.15;;;18.70;99.90;;;;;;5093902;28;20028;-70
2022/07/10 04:22:45;;;;;;;4.72;3.78;;;18.70;99.90;;;;;;5091292;28;20028;-70
2022/07/10 04:25:11;;;;;;;4.68;3.58;;;18.60;99.90;;;;;;5093242;28;20020;-70
2022/07/10 04:27:37;;;;;;;5.88;4.25;;;18.60;99.90;;;;;;5085789;28;20031;-70
2022/07/10 04:30:04;;;;;;;7.35;4.13;;;18.60;99.90;;;;;;5081056;28;20467;-70
2022/07/10 04:32:30;;;;;;;8.38;4.00;;;18.50;99.90;;;;;;5087023;28;20495;-70
2022/07/10 04:34:56;;;;;;;6.53;3.92;;;18.50;99.90;;;;;;5087170;28;20017;-70
2022/07/10 04:37:22;;;;;;;7.50;4.15;;;18.50;99.90;;;;;;5087831;28;20480;-70
2022/07/10 04:39:48;;;;;;;6.15;4.15;;;18.50;99.90;;;;;;5088359;28;20484;-70
2022/07/10 04:42:13;;;;;;;7.93;3.53;;;18.40;99.90;;;;;;5090987;28;20051;-70
2022/07/10 04:44:39;;;;;;;6.72;3.28;;;18.40;99.90;;;;;;5092349;28;20024;-69
2022/07/10 04:47:06;;;;;;;9.73;3.28;;;18.50;99.90;;;;;;5093597;28;20398;-70
2022/07/10 04:49:32;;;;;;;10.38;3.47;;;18.50;99.90;;;;;;5098542;28;20020;-70
2022/07/10 04:51:59;;;;;;;6.70;3.42;;;18.60;99.90;;;;;;5092889;28;20056;-70
2022/07/10 04:54:25;;;;;;;5.10;4.00;;;18.70;99.90;;;;;;5085406;28;20028;-70
2022/07/10 04:56:51;;;;;;;4.90;3.75;;;18.70;99.90;;;;;;5090675;28;20032;-70
2022/07/10 04:59:17;;;;;;;3.80;3.33;;;18.70;99.90;;;;;;5077735;28;20081;-70
2022/07/10 05:01:43;;;;;;;4.90;3.72;;;18.80;99.90;;;;;;5080658;28;20031;-70
2022/07/10 05:04:08;;;;;;;6.47;3.83;;;18.80;99.90;;;;;;5088798;28;20804;-70
2022/07/10 05:06:34;;;;;;;7.93;3.65;;;18.90;99.90;;;;;;5088746;28;20028;-70
2022/07/10 05:09:01;;;;;;;5.45;3.75;;;19.00;99.90;;;;;;5083966;28;20024;-70
2022/07/10 05:11:27;;;;;;;6.43;3.78;;;19.10;99.90;;;;;;5089169;28;20109;-70
2022/07/10 05:13:53;;;;;;;9.95;4.47;;;19.20;99.90;;;;;;5087733;28;20017;-70
2022/07/10 05:16:19;;;;;;;12.05;5.78;;;19.30;99.90;;;;;;5090610;28;20020;-70
2022/07/10 05:18:45;;;;;;;9.45;5.68;;;19.30;99.90;;;;;;5091602;28;20031;-70
2022/07/10 05:21:11;;;;;;;8.77;4.03;;;19.30;99.90;;;;;;5095485;28;20017;-70
2022/07/10 05:23:38;;;;;;;6.57;3.80;;;19.40;99.90;;;;;;5096155;28;20024;-70
2022/07/10 05:26:05;;;;;;;5.30;4.10;;;19.40;99.90;;;;;;5096400;28;20396;-70
2022/07/10 05:28:31;;;;;;;12.95;5.90;;;19.50;99.90;;;;;;5084419;28;20024;-70
2022/07/10 05:30:56;;;;;;;12.15;6.60;;;19.60;99.90;;;;;;5079614;28;20384;-70
2022/07/10 05:33:22;;;;;;;8.82;4.40;;;19.80;99.90;;;;;;5079748;28;20013;-70
2022/07/10 05:35:48;;;;;;;8.25;4.10;;;19.80;99.90;;;;;;5081976;28;20032;-70
2022/07/10 05:38:15;;;;;;;11.27;4.05;;;19.70;99.90;;;;;;5095489;28;20020;-70
2022/07/10 05:40:40;;;;;;;8.80;4.72;;;19.80;99.90;;;;;;5096254;28;20045;-71
2022/07/10 05:43:06;;;;;;;9.10;4.00;;;19.90;99.90;;;;;;5091181;28;20134;-71
2022/07/10 05:45:32;;;;;;;6.00;4.53;;;20.00;99.90;;;;;;5095726;28;20034;-71
2022/07/10 05:47:58;;;;;;;6.70;3.78;;;20.00;99.90;;;;;;5091750;28;20028;-71
2022/07/10 05:50:24;;;;;;;8.20;4.35;;;20.10;99.90;;;;;;5094715;28;20046;-71
2022/07/10 05:52:50;;;;;;;7.97;3.97;;;20.20;99.90;;;;;;5093336;28;20072;-70
2022/07/10 05:55:15;;;;;;;6.72;3.78;;;20.30;99.90;;;;;;5088667;28;20028;-70
2022/07/10 05:57:41;;;;;;;12.35;4.50;;;20.40;99.90;;;;;;5090155;28;20400;-71
2022/07/10 06:00:08;;;;;;;11.20;4.13;;;20.50;99.90;;;;;;5093521;28;20019;-71
2022/07/10 06:02:34;;;;;;;8.43;3.78;;;20.60;99.90;;;;;;5094375;28;20024;-71
2022/07/10 06:05:01;;;;;;;5.95;4.18;;;20.80;99.90;;;;;;5092322;28;20031;-71
2022/07/10 06:07:27;;;;;;;8.02;4.57;;;20.80;99.90;;;;;;5096347;28;20024;-71
2022/07/10 06:09:54;;;;;;;7.47;3.53;;;21.00;99.90;;;;;;5082705;28;20028;-71
2022/07/10 06:12:20;;;;;;;9.50;4.90;;;21.10;99.90;;;;;;5095494;28;20020;-72
2022/07/10 06:14:46;;;;;;;7.88;4.03;;;21.20;99.90;;;;;;5079924;28;20090;-72
2022/07/10 06:17:11;;;;;;;10.23;3.85;;;21.30;99.90;;;;;;5094645;28;20019;-72
2022/07/10 06:19:38;;;;;;;6.93;3.33;;;21.40;99.90;;;;;;5091756;28;20056;-72
2022/07/10 06:24:48;;;;;;;4.95;3.55;;;21.50;99.90;;;;;;5095925;28;20171;-72
2022/07/10 06:27:14;;;;;;;6.60;3.33;;;21.60;99.90;;;;;;5085296;28;20025;-73
2022/07/10 06:29:40;;;;;;;5.05;3.17;;;21.70;99.90;;;;;;5082024;28;20021;-72
2022/07/10 06:32:07;;;;;;;5.03;3.55;;;21.80;99.90;;;;;;5080615;28;20020;-72
2022/07/10 06:34:32;;;;;;;10.25;3.47;;;21.90;99.90;;;;;;5089358;28;20031;-72
2022/07/10 06:36:58;;;;;;;7.38;3.50;;;21.90;99.90;;;;;;5082841;28;20048;-72
2022/07/10 06:39:24;;;;;;;5.70;3.47;;;21.90;99.90;;;;;;5095729;28;20107;-72
2022/07/10 06:41:50;;;;;;;8.90;4.15;;;22.00;99.90;;;;;;5095616;28;20392;-72
2022/07/10 06:44:16;;;;;;;4.97;3.40;;;22.00;99.90;;;;;;5095487;28;20063;-72
2022/07/10 06:46:42;;;;;;;5.40;3.20;;;22.10;99.90;;;;;;5095144;28;20462;-72
2022/07/10 06:49:08;;;;;;;5.38;3.08;;;22.20;99.90;;;;;;5095577;28;20025;-73
2022/07/10 06:51:34;;;;;;;6.25;3.50;;;22.20;99.90;;;;;;5094226;28;20123;-73
2022/07/10 06:54:00;;;;;;;3.92;3.22;;;22.20;99.90;;;;;;5094168;28;20020;-72
2022/07/10 06:56:27;;;;;;;5.97;3.35;;;22.30;99.90;;;;;;5094436;28;20034;-72
2022/07/10 06:58:52;;;;;;;9.18;3.40;;;22.40;99.90;;;;;;5096015;28;20054;-72
2022/07/10 07:01:19;;;;;;;9.27;4.20;;;22.50;99.90;;;;;;5097777;28;20016;-72
2022/07/10 07:03:44;;;;;;;9.23;3.70;;;22.50;99.90;;;;;;5117485;27;20028;-72
2022/07/10 07:06:10;;;;;;;4.38;3.30;;;22.60;99.90;;;;;;5086343;28;20023;-73
2022/07/10 07:08:36;;;;;;;4.95;3.15;;;22.70;99.90;;;;;;5094325;28;20069;-73
2022/07/10 07:11:02;;;;;;;5.80;3.03;;;22.90;99.90;;;;;;5095543;28;20028;-73
2022/07/10 07:13:28;;;;;;;6.95;3.58;;;23.00;99.90;;;;;;5098932;28;20032;-73
2022/07/10 07:15:59;;;;;;;7.07;3.05;;;23.10;99.90;;;;;;5089607;28;20039;-73
2022/07/10 07:18:32;;;;;;;6.72;3.88;;;23.10;99.90;;;;;;5099860;28;20028;-72
2022/07/10 07:23:46;;;;;;;6.72;3.42;;;23.10;99.90;;;;;;5087248;28;20092;-73
2022/07/10 07:26:12;;;;;;;6.00;3.10;;;23.20;99.90;;;;;;5087792;28;20520;-73
2022/07/10 07:28:38;;;;;;;8.02;3.75;;;23.20;99.90;;;;;;5083790;28;20031;-72
2022/07/10 07:31:04;;;;;;;5.25;3.30;;;23.20;99.90;;;;;;5094991;28;20016;-72
2022/07/10 07:33:30;;;;;;;4.85;3.58;;;23.30;99.90;;;;;;5118767;27;20028;-73
2022/07/10 07:35:56;;;;;;;4.45;3.05;;;23.30;99.90;;;;;;5094911;28;20030;-72
2022/07/10 07:38:22;;;;;;;6.45;3.40;;;23.40;99.90;;;;;;5095656;28;20032;-72
2022/07/10 07:40:47;;;;;;;6.03;3.35;;;23.60;99.90;;;;;;5088099;28;20475;-72
2022/07/10 07:43:13;;;;;;;6.55;3.00;;;23.70;99.90;;;;;;5087316;28;20027;-72
2022/07/10 07:45:39;;;;;;;4.68;3.20;;;23.70;99.90;;;;;;5087919;28;20431;-72
2022/07/10 07:48:05;;;;;;;10.20;3.22;;;24.00;99.90;;;;;;5092353;28;20026;-72
2022/07/10 07:50:33;;;;;;;7.85;3.80;;;24.10;99.90;;;;;;5095605;28;20016;-72
2022/07/10 07:53:04;;;;;;;4.07;3.08;;;24.30;99.50;;;;;;5090141;28;20052;-73
2022/07/10 07:55:31;;;;;;;4.38;2.92;;;24.30;98.90;;;;;;5094917;28;20031;-74
2022/07/10 07:57:57;;;;;;;5.65;2.60;;;24.30;98.60;;;;;;5095548;28;20040;-72
2022/07/10 08:00:25;;;;;;;9.32;3.13;;;24.30;97.50;;;;;;5089581;28;20024;-72
2022/07/10 08:02:51;;;;;;;4.88;3.05;;;24.30;97.70;;;;;;5084690;28;20021;-72
2022/07/10 08:05:18;;;;;;;6.63;2.70;;;24.30;97.70;;;;;;5092770;28;20400;-72
2022/07/10 08:07:46;;;;;;;3.88;2.92;;;24.40;97.00;;;;;;5079858;28;20039;-72
2022/07/10 08:10:15;;;;;;;9.77;2.92;;;24.40;97.00;;;;;;5082787;28;20015;-72
2022/07/10 08:12:42;;;;;;;6.35;3.72;;;24.50;97.50;;;;;;5078192;28;20031;-72
2022/07/10 08:15:10;;;;;;;4.82;2.97;;;24.60;97.50;;;;;;5097299;28;20012;-72
2022/07/10 08:17:36;;;;;;;4.63;2.60;;;24.80;98.00;;;;;;5092618;28;20027;-72
2022/07/10 08:20:04;;;;;;;6.13;3.55;;;25.00;97.40;;;;;;5088133;28;20024;-73
2022/07/10 08:22:30;;;;;;;4.32;2.88;;;25.20;96.40;;;;;;5086044;28;20066;-73
2022/07/10 08:24:58;;;;;;;7.60;2.80;;;25.30;97.00;;;;;;5097146;28;20202;-72
2022/07/10 08:27:24;;;;;;;6.00;3.10;;;25.40;96.70;;;;;;5090917;28;20399;-73
2022/07/10 08:29:50;;;;;;;7.45;3.00;;;25.60;96.20;;;;;;5087826;28;20035;-71
2022/07/10 08:32:16;;;;;;;3.08;2.70;;;25.80;95.60;;;;;;5091661;28;20439;-73
2022/07/10 08:34:42;;;;;;;4.35;2.55;;;25.80;94.40;;;;;;5080424;28;20084;-73
2022/07/10 08:37:08;;;;;;;3.90;2.40;;;25.80;94.50;;;;;;5089969;28;20101;-72
2022/07/10 08:39:34;;;;;;;6.07;2.80;;;25.90;94.30;;;;;;5090331;28;20025;-73
2022/07/10 08:42:00;;;;;;;4.97;2.33;;;26.00;93.00;;;;;;5082494;28;20024;-73
2022/07/10 08:44:30;;;;;;;3.78;2.13;;;26.00;92.90;;;;;;5081636;28;20031;-72
2022/07/10 08:46:56;;;;;;;8.87;3.03;;;26.10;92.80;;;;;;5084291;28;20066;-72
2022/07/10 08:49:28;;;;;;;5.53;2.35;;;26.20;92.60;;;;;;5097770;28;20529;-72
2022/07/10 08:52:12;;;;;;;9.05;3.30;;;26.30;92.80;;;;;;5094428;28;20047;-73
2022/07/10 08:54:38;;;;;;;3.40;2.45;;;26.30;92.10;;;;;;5087590;28;20425;-72
2022/07/10 08:57:05;;;;;;;6.10;2.70;;;26.40;91.90;;;;;;5092523;28;20044;-72
2022/07/10 08:59:31;;;;;;;8.68;2.60;;;26.50;92.30;;;;;;5079034;28;20028;-72
2022/07/10 09:01:58;;;;;;;4.65;2.60;;;26.60;90.10;;;;;;5085824;28;20020;-72
2022/07/10 09:04:25;;;;;;;5.85;2.75;;;26.70;88.70;;;;;;5090307;28;20024;-73
2022/07/10 09:06:53;;;;;;;5.63;2.38;;;26.70;90.00;;;;;;5090184;28;20031;-72
2022/07/10 09:09:19;;;;;;;4.43;2.72;;;26.70;90.10;;;;;;5084890;28;20012;-73
2022/07/10 09:11:46;;;;;;;6.03;2.90;;;26.70;89.60;;;;;;5090452;28;20020;-72
2022/07/10 09:14:14;;;;;;;8.35;2.85;;;26.70;87.70;;;;;;5088742;28;20388;-72
2022/07/10 09:16:49;;;;;;;6.30;2.78;;;26.80;89.40;;;;;;5094059;28;20052;-73
2022/07/10 09:19:19;;;;;;;7.57;2.72;;;26.90;89.20;;;;;;5092505;28;20036;-72
2022/07/10 09:21:51;;;;;;;8.07;2.90;;;27.00;89.40;;;;;;5092660;28;20047;-73
2022/07/10 09:24:19;;;;;;;3.55;2.83;;;27.00;87.50;;;;;;5096875;28;20114;-76
2022/07/10 09:27:03;;;;;;;4.72;2.55;;;27.10;88.30;;;;;;5088006;28;20032;-73
2022/07/10 09:29:30;;;;;;;7.80;3.08;;;27.20;87.60;;;;;;5087019;28;20050;-73
2022/07/10 09:31:58;;;;;;;12.07;2.97;;;27.20;86.10;;;;;;5076227;28;20492;-73
2022/07/10 09:34:44;;;;;;;7.47;2.60;;;27.30;85.60;;;;;;5082235;28;20020;-73
2022/07/10 09:37:23;;;;;;;10.82;2.30;;;27.30;82.90;;;;;;5096153;28;20599;-73
2022/07/10 09:39:57;;;;;;;5.70;2.40;;;27.40;82.20;;;;;;5094993;28;20081;-73
2022/07/10 09:42:43;;;;;;;5.13;2.75;;;27.50;84.40;;;;;;5094747;28;20026;-73
2022/07/10 09:45:12;;;;;;;4.93;2.63;;;27.50;83.00;;;;;;5095667;28;20047;-73
2022/07/10 09:47:55;;;;;;;4.50;2.90;;;27.70;83.90;;;;;;5096146;28;20028;-73
2022/07/10 09:50:24;;;;;;;4.70;2.97;;;27.80;80.60;;;;;;5091238;28;20583;-73
2022/07/10 09:52:52;;;;;;;3.67;2.40;;;27.90;81.10;;;;;;5086198;28;20538;-73
2022/07/10 09:55:24;;;;;;;7.40;2.15;;;28.00;80.70;;;;;;5095826;28;20027;-73
2022/07/10 09:57:58;;;;;;;7.65;2.55;;;28.00;79.50;;;;;;5094547;28;20070;-73
2022/07/10 10:00:29;;;;;;;7.78;2.55;;;27.90;78.80;;;;;;5095464;28;20047;-73
2022/07/10 10:02:58;;;;;;;4.75;2.58;;;27.90;80.10;;;;;;5094275;28;20020;-73
2022/07/10 10:05:58;;;;;;;3.10;2.25;;;28.10;79.60;;;;;;5082810;28;20043;-73
2022/07/10 10:08:44;;;;;;;5.47;2.88;;;28.20;78.70;;;;;;5082705;28;20033;-73
2022/07/10 10:11:15;;;;;;;6.45;2.80;;;28.20;79.30;;;;;;5093333;28;20030;-73
2022/07/10 10:13:43;;;;;;;3.10;2.33;;;28.30;78.40;;;;;;5094261;28;20024;-73
2022/07/10 10:16:09;;;;;;;8.02;2.78;;;28.30;76.00;;;;;;5093314;28;20028;-73
2022/07/10 10:20:36;;;;;;;7.30;2.50;;;28.30;76.70;;;;;;5094135;28;20032;-73
2022/07/10 10:21:23;;;;;;;4.80;2.90;;;28.40;76.90;;;;;;5095588;28;20031;-73
2022/07/10 10:23:51;;;;;;;2.70;2.13;;;28.50;75.80;;;;;;5094456;28;20035;-73
2022/07/10 10:26:17;;;;;;;3.85;2.33;;;28.50;76.90;;;;;;5095438;28;20144;-73
2022/07/10 10:28:43;;;;;;;4.47;2.53;;;28.60;75.50;;;;;;5094046;28;20496;-73
2022/07/10 10:31:10;;;;;;;8.07;2.60;;;28.70;73.90;;;;;;5095110;28;20008;-73
2022/07/10 10:33:40;;;;;;;7.05;2.15;;;28.80;74.10;;;;;;5096604;28;20103;-73
2022/07/10 10:36:06;;;;;;;6.55;2.47;;;28.90;76.00;;;;;;5098290;28;20053;-73
2022/07/10 10:38:55;;;;;;;11.95;2.85;;;29.20;76.30;;;;;;5099500;28;20480;-73
2022/07/10 10:41:32;;;;;;;7.43;2.42;;;29.40;75.20;;;;;;5090380;28;20032;-73
2022/07/10 10:44:13;;;;;;;4.05;2.22;;;29.50;74.50;;;;;;5095775;28;20469;-73
2022/07/10 10:46:54;;;;;;;4.60;1.95;;;29.70;73.10;;;;;;5079416;28;20043;-73
2022/07/10 10:49:25;;;;;;;8.55;2.42;;;29.90;73.20;;;;;;5082751;28;20480;-73
2022/07/10 10:52:08;;;;;;;8.45;2.92;;;30.00;71.50;;;;;;5084469;28;20048;-73
2022/07/10 10:54:56;;;;;;;5.38;2.35;;;30.00;70.30;;;;;;5084445;28;20020;-73
2022/07/10 10:57:47;;;;;;;6.75;2.50;;;29.80;70.40;;;;;;5084354;28;20063;-70
2022/07/10 11:00:15;;;;;;;6.35;2.55;;;29.90;71.40;;;;;;5090516;28;20456;-70
2022/07/10 11:02:41;;;;;;;5.57;2.38;;;30.00;70.20;;;;;;5088121;28;20020;-70
2022/07/10 11:05:23;;;;;;;3.30;1.95;;;30.00;69.50;;;;;;5092925;28;20168;-73
2022/07/10 11:07:54;;;;;;;4.18;2.08;;;30.10;71.00;;;;;;5098977;28;20039;-73
2022/07/10 11:10:31;;;;;;;4.18;2.40;;;30.20;68.30;;;;;;5096347;28;20017;-73
2022/07/10 11:13:04;;;;;;;3.20;1.60;;;30.30;68.90;;;;;;5093707;28;20051;-73
2022/07/10 11:15:32;;;;;;;3.35;1.67;;;30.30;64.30;;;;;;5096554;28;20671;-73
2022/07/10 11:18:22;;;;;;;4.78;2.30;;;30.30;65.60;;;;;;5085779;28;20016;-73
2022/07/10 11:20:50;;;;;;;3.75;2.03;;;30.30;63.20;;;;;;5084587;28;20023;-73
2022/07/10 11:23:41;;;;;;;4.20;1.90;;;30.20;63.80;;;;;;5095331;28;20053;-73
2022/07/10 11:26:11;;;;;;;4.38;2.13;;;30.10;63.70;;;;;;5090512;28;20034;-73
2022/07/10 11:28:59;;;;;;;3.08;1.88;;;30.10;64.90;;;;;;5086473;28;20442;-74
2022/07/10 11:31:27;;;;;;;3.05;1.95;;;30.00;63.10;;;;;;5088224;28;20020;-73
2022/07/10 11:33:55;;;;;;;2.70;2.13;;;30.00;59.50;;;;;;5090478;28;20021;-74
2022/07/10 11:36:32;;;;;;;6.50;2.08;;;30.00;61.70;;;;;;5084427;28;20515;-74
2022/07/10 11:39:04;;;;;;;2.75;2.00;;;30.00;63.80;;;;;;5095639;28;20024;-74
2022/07/10 11:41:30;;;;;;;3.75;1.80;;;30.20;66.20;;;;;;5096739;28;20043;-74
2022/07/10 11:44:01;;;;;;;3.15;1.63;;;30.30;62.10;;;;;;5097815;28;20028;-74
2022/07/10 11:46:33;;;;;;;5.20;2.70;;;30.30;63.10;;;;;;5095589;28;20383;-74
2022/07/10 11:48:59;;;;;;;3.30;2.10;;;30.20;63.50;;;;;;5096870;28;20016;-74
2022/07/10 11:51:28;;;;;;;3.92;2.08;;;30.30;62.60;;;;;;5098140;28;20569;-74
2022/07/10 11:54:03;;;;;;;7.83;2.07;;;30.50;62.10;;;;;;5096755;28;20024;-74
2022/07/10 11:56:34;;;;;;;6.70;2.90;;;30.40;62.20;;;;;;5096558;28;20062;-75
2022/07/10 11:59:10;;;;;;;7.95;2.45;;;30.50;61.90;;;;;;5097786;28;20494;-75
2022/07/10 12:01:44;;;;;;;2.78;1.77;;;30.50;61.10;;;;;;5096459;28;20427;-75
2022/07/10 12:04:11;;;;;;;6.28;2.28;;;30.80;60.60;;;;;;5098205;28;20016;-75
2022/07/10 12:06:43;;;;;;;3.65;1.80;;;30.70;58.90;;;;;;5097650;28;20031;-74
2022/07/10 12:09:11;;;;;;;6.10;1.63;;;30.80;60.30;;;;;;5097826;28;20395;-75
2022/07/10 12:11:37;;;;;;;2.88;1.50;;;31.00;61.70;;;;;;5097841;28;20084;-74
2022/07/10 12:14:19;;;;;;;9.65;2.45;;;31.10;60.70;;;;;;5097737;28;20095;-73
2022/07/10 12:16:51;;;;;;;2.88;1.98;;;31.30;59.40;;;;;;5094578;28;20033;-73
2022/07/10 12:19:19;;;;;;;5.53;2.22;;;31.30;57.90;;;;;;5097685;28;20507;-73
2022/07/10 12:21:47;;;;;;;3.25;1.65;;;31.40;57.80;;;;;;5096353;28;20016;-73
2022/07/10 12:24:16;;;;;;;2.63;1.60;;;31.50;58.80;;;;;;5095548;28;20016;-74
2022/07/10 12:26:43;;;;;;;3.00;1.92;;;31.40;59.50;;;;;;5096683;28;20846;-73
2022/07/10 12:29:29;;;;;;;4.57;1.60;;;31.40;58.00;;;;;;5096002;28;20028;-73
2022/07/10 12:31:58;;;;;;;2.80;1.70;;;31.40;56.10;;;;;;5089822;28;20016;-74
2022/07/10 12:34:39;;;;;;;2.22;1.35;;;31.50;57.10;;;;;;5095644;28;20016;-74
2022/07/10 12:37:13;;;;;;;4.20;1.23;;;31.50;55.40;;;;;;5084464;28;20384;-74
2022/07/10 12:39:53;;;;;;;2.50;1.50;;;31.40;54.50;;;;;;5086892;28;20032;-73
2022/07/10 12:42:30;;;;;;;3.70;1.73;;;31.40;54.30;;;;;;5096171;28;20114;-73
2022/07/10 12:45:10;;;;;;;5.22;1.70;;;31.60;54.00;;;;;;5080186;28;20098;-74
2022/07/10 12:47:50;;;;;;;2.22;1.45;;;31.60;53.10;;;;;;5096633;28;20031;-74
2022/07/10 12:50:18;;;;;;;4.15;1.70;;;31.60;51.90;;;;;;5097240;28;20031;-75
2022/07/10 12:52:44;;;;;;;2.97;1.55;;;31.80;54.20;;;;;;5096870;28;20063;-74
2022/07/10 12:55:21;;;;;;;2.22;1.23;;;31.90;50.90;;;;;;5094895;28;20095;-74
2022/07/10 12:57:52;;;;;;;4.25;1.25;;;32.00;50.70;;;;;;5097763;28;20349;-74
2022/07/10 13:00:23;;;;;;;3.17;1.85;;;32.00;52.40;;;;;;5093436;28;20391;-74